sensor_id;sensor_type;location;lat;lon;timestamp;pressure;altitude;pressure_sealevel;temperature;humidity
8758;BME280;4415;42.152;24.744;2023-11-19T00:01:55;99242.78;;;7.77;70.97
8758;BME280;4415;42.152;24.744;2023-11-19T00:04:21;99249.72;;;7.88;70.98
8758;BME280;4415;42.152;24.744;2023-11-19T00:06:47;99261.78;;;7.96;71.07
8758;BME280;4415;42.152;24.744;2023-11-19T00:09:13;99239.03;;;7.78;71.03
8758;BME280;4415;42.152;24.744;2023-11-19T00:11:38;99265.59;;;7.90;71.06
8758;BME280;4415;42.152;24.744;2023-11-19T00:14:04;99262.84;;;8.00;70.91
8758;BME280;4415;42.152;24.744;2023-11-19T00:16:29;99254.84;;;7.90;70.79
8758;BME280;4415;42.152;24.744;2023-11-19T00:18:57;99268.28;;;7.90;71.52
8758;BME280;4415;42.152;24.744;2023-11-19T00:21:22;99254.53;;;7.91;71.82
8758;BME280;4415;42.152;24.744;2023-11-19T00:23:47;99252.75;;;7.77;72.17
8758;BME280;4415;42.152;24.744;2023-11-19T00:26:13;99231.84;;;7.69;72.05
8758;BME280;4415;42.152;24.744;2023-11-19T00:28:39;99262.94;;;7.80;72.57
8758;BME280;4415;42.152;24.744;2023-11-19T00:31:04;99232.41;;;7.61;72.31
8758;BME280;4415;42.152;24.744;2023-11-19T00:33:30;99277.19;;;7.80;72.39
8758;BME280;4415;42.152;24.744;2023-11-19T00:35:56;99260.06;;;7.71;72.41
8758;BME280;4415;42.152;24.744;2023-11-19T00:38:21;99283.69;;;7.79;72.22
8758;BME280;4415;42.152;24.744;2023-11-19T00:40:47;99282.03;;;7.83;72.58
8758;BME280;4415;42.152;24.744;2023-11-19T00:43:12;99279.81;;;7.90;71.71
8758;BME280;4415;42.152;24.744;2023-11-19T00:45:38;99275.56;;;7.84;72.11
8758;BME280;4415;42.152;24.744;2023-11-19T00:48:04;99294.13;;;7.86;72.12
8758;BME280;4415;42.152;24.744;2023-11-19T00:50:29;99277.78;;;7.72;72.09
8758;BME280;4415;42.152;24.744;2023-11-19T00:52:56;99274.78;;;7.79;72.30
8758;BME280;4415;42.152;24.744;2023-11-19T00:55:21;99285.81;;;7.77;72.35
8758;BME280;4415;42.152;24.744;2023-11-19T00:57:47;99279.34;;;7.83;72.14
8758;BME280;4415;42.152;24.744;2023-11-19T01:00:12;99274.31;;;7.67;72.36
8758;BME280;4415;42.152;24.744;2023-11-19T01:02:44;99295.75;;;7.82;72.23
8758;BME280;4415;42.152;24.744;2023-11-19T01:05:10;99292.22;;;7.86;72.17
8758;BME280;4415;42.152;24.744;2023-11-19T01:07:39;99294.69;;;7.78;72.50
8758;BME280;4415;42.152;24.744;2023-11-19T01:10:05;99285.59;;;7.74;73.31
8758;BME280;4415;42.152;24.744;2023-11-19T01:12:31;99302.22;;;7.81;73.12
8758;BME280;4415;42.152;24.744;2023-11-19T01:14:56;99280.75;;;7.71;73.00
8758;BME280;4415;42.152;24.744;2023-11-19T01:17:23;99299.78;;;7.84;72.63
8758;BME280;4415;42.152;24.744;2023-11-19T01:19:48;99299.22;;;7.82;73.12
8758;BME280;4415;42.152;24.744;2023-11-19T01:22:15;99296.31;;;7.79;73.26
8758;BME280;4415;42.152;24.744;2023-11-19T01:24:40;99312.47;;;7.74;74.11
8758;BME280;4415;42.152;24.744;2023-11-19T01:27:06;99308.72;;;7.70;73.79
8758;BME280;4415;42.152;24.744;2023-11-19T01:29:31;99295.56;;;7.63;74.04
8758;BME280;4415;42.152;24.744;2023-11-19T01:31:56;99308.72;;;7.70;74.12
8758;BME280;4415;42.152;24.744;2023-11-19T01:34:22;99308.13;;;7.78;73.84
8758;BME280;4415;42.152;24.744;2023-11-19T01:36:47;99308.44;;;7.71;73.74
8758;BME280;4415;42.152;24.744;2023-11-19T01:39:14;99303.34;;;7.65;73.34
8758;BME280;4415;42.152;24.744;2023-11-19T01:41:41;99307.63;;;7.71;73.65
8758;BME280;4415;42.152;24.744;2023-11-19T01:44:07;99303.34;;;7.70;74.10
8758;BME280;4415;42.152;24.744;2023-11-19T01:46:33;99303.59;;;7.73;74.15
8758;BME280;4415;42.152;24.744;2023-11-19T01:49:00;99269.28;;;7.50;74.00
8758;BME280;4415;42.152;24.744;2023-11-19T01:51:26;99292.88;;;7.68;74.91
8758;BME280;4415;42.152;24.744;2023-11-19T01:53:52;99290.44;;;7.67;74.54
8758;BME280;4415;42.152;24.744;2023-11-19T01:56:18;99295.25;;;7.70;74.61
8758;BME280;4415;42.152;24.744;2023-11-19T01:58:45;99287.50;;;7.63;74.68
8758;BME280;4415;42.152;24.744;2023-11-19T02:01:11;99308.69;;;7.75;74.45
8758;BME280;4415;42.152;24.744;2023-11-19T02:03:37;99289.94;;;7.60;74.81
8758;BME280;4415;42.152;24.744;2023-11-19T02:06:03;99314.59;;;7.72;74.87
8758;BME280;4415;42.152;24.744;2023-11-19T02:08:29;99325.38;;;7.77;74.32
8758;BME280;4415;42.152;24.744;2023-11-19T02:10:55;99304.44;;;7.59;74.51
8758;BME280;4415;42.152;24.744;2023-11-19T02:13:24;99319.50;;;7.65;74.44
8758;BME280;4415;42.152;24.744;2023-11-19T02:15:50;99310.34;;;7.66;74.93
8758;BME280;4415;42.152;24.744;2023-11-19T02:18:23;99292.94;;;7.48;74.58
8758;BME280;4415;42.152;24.744;2023-11-19T02:20:50;99307.94;;;7.64;75.05
8758;BME280;4415;42.152;24.744;2023-11-19T02:23:16;99292.16;;;7.48;74.82
8758;BME280;4415;42.152;24.744;2023-11-19T02:25:43;99305.00;;;7.51;75.11
8758;BME280;4415;42.152;24.744;2023-11-19T02:28:10;99306.91;;;7.55;74.49
8758;BME280;4415;42.152;24.744;2023-11-19T02:30:37;99297.00;;;7.36;74.75
8758;BME280;4415;42.152;24.744;2023-11-19T02:33:03;99314.16;;;7.55;74.50
8758;BME280;4415;42.152;24.744;2023-11-19T02:35:31;99302.38;;;7.41;74.78
8758;BME280;4415;42.152;24.744;2023-11-19T02:37:58;99337.25;;;7.61;74.57
8758;BME280;4415;42.152;24.744;2023-11-19T02:40:24;99329.72;;;7.63;74.27
8758;BME280;4415;42.152;24.744;2023-11-19T02:42:50;99321.13;;;7.61;73.77
8758;BME280;4415;42.152;24.744;2023-11-19T02:45:16;99334.81;;;7.64;72.91
8758;BME280;4415;42.152;24.744;2023-11-19T02:47:43;99346.88;;;7.72;73.51
8758;BME280;4415;42.152;24.744;2023-11-19T02:50:09;99331.88;;;7.66;73.48
8758;BME280;4415;42.152;24.744;2023-11-19T02:52:45;99333.72;;;7.70;73.57
8758;BME280;4415;42.152;24.744;2023-11-19T02:55:11;99341.53;;;7.67;73.32
8758;BME280;4415;42.152;24.744;2023-11-19T02:57:41;99325.47;;;7.47;73.32
8758;BME280;4415;42.152;24.744;2023-11-19T03:00:19;99344.22;;;7.62;73.52
8758;BME280;4415;42.152;24.744;2023-11-19T03:02:49;99311.19;;;7.51;73.83
8758;BME280;4415;42.152;24.744;2023-11-19T03:05:23;99315.97;;;7.69;72.78
8758;BME280;4415;42.152;24.744;2023-11-19T03:07:49;99293.19;;;7.52;73.22
8758;BME280;4415;42.152;24.744;2023-11-19T03:10:14;99322.47;;;7.63;72.71
8758;BME280;4415;42.152;24.744;2023-11-19T03:12:40;99315.19;;;7.59;72.14
8758;BME280;4415;42.152;24.744;2023-11-19T03:15:06;99328.63;;;7.59;72.44
8758;BME280;4415;42.152;24.744;2023-11-19T03:17:32;99325.94;;;7.64;72.34
8758;BME280;4415;42.152;24.744;2023-11-19T03:19:59;99324.38;;;7.58;73.10
8758;BME280;4415;42.152;24.744;2023-11-19T03:22:26;99324.94;;;7.45;73.54
8758;BME280;4415;42.152;24.744;2023-11-19T03:24:51;99323.31;;;7.44;73.91
8758;BME280;4415;42.152;24.744;2023-11-19T03:27:17;99314.75;;;7.42;74.11
8758;BME280;4415;42.152;24.744;2023-11-19T03:29:42;99311.00;;;7.32;74.29
8758;BME280;4415;42.152;24.744;2023-11-19T03:32:08;99327.09;;;7.43;74.25
8758;BME280;4415;42.152;24.744;2023-11-19T03:34:33;99308.84;;;7.40;74.28
8758;BME280;4415;42.152;24.744;2023-11-19T03:36:59;99325.19;;;7.48;74.32
8758;BME280;4415;42.152;24.744;2023-11-19T03:39:24;99299.44;;;7.32;74.00
8758;BME280;4415;42.152;24.744;2023-11-19T03:41:50;99319.25;;;7.51;73.86
8758;BME280;4415;42.152;24.744;2023-11-19T03:44:15;99319.03;;;7.48;74.15
8758;BME280;4415;42.152;24.744;2023-11-19T03:46:41;99324.41;;;7.48;74.95
8758;BME280;4415;42.152;24.744;2023-11-19T03:49:07;99329.78;;;7.38;75.02
8758;BME280;4415;42.152;24.744;2023-11-19T03:51:32;99325.75;;;7.40;75.37
8758;BME280;4415;42.152;24.744;2023-11-19T03:53:59;99313.66;;;7.38;76.01
8758;BME280;4415;42.152;24.744;2023-11-19T03:56:24;99314.25;;;7.24;75.75
8758;BME280;4415;42.152;24.744;2023-11-19T03:58:50;99301.31;;;7.26;75.77
8758;BME280;4415;42.152;24.744;2023-11-19T04:01:15;99312.06;;;7.26;75.27
8758;BME280;4415;42.152;24.744;2023-11-19T04:03:40;99324.44;;;7.32;75.53
8758;BME280;4415;42.152;24.744;2023-11-19T04:06:06;99342.69;;;7.36;74.60
8758;BME280;4415;42.152;24.744;2023-11-19T04:08:32;99337.59;;;7.39;73.78
8758;BME280;4415;42.152;24.744;2023-11-19T04:10:57;99344.34;;;7.31;73.80
8758;BME280;4415;42.152;24.744;2023-11-19T04:13:22;99320.97;;;7.22;73.16
8758;BME280;4415;42.152;24.744;2023-11-19T04:15:49;99328.22;;;7.21;73.59
8758;BME280;4415;42.152;24.744;2023-11-19T04:18:15;99349.69;;;7.26;74.14
8758;BME280;4415;42.152;24.744;2023-11-19T04:20:41;99337.34;;;7.25;73.42
8758;BME280;4415;42.152;24.744;2023-11-19T04:23:10;99347.00;;;7.26;73.00
8758;BME280;4415;42.152;24.744;2023-11-19T04:25:36;99351.84;;;7.24;72.26
8758;BME280;4415;42.152;24.744;2023-11-19T04:28:02;99352.94;;;7.28;72.62
8758;BME280;4415;42.152;24.744;2023-11-19T04:30:28;99369.06;;;7.28;72.24
8758;BME280;4415;42.152;24.744;2023-11-19T04:32:53;99346.47;;;7.29;72.95
8758;BME280;4415;42.152;24.744;2023-11-19T04:35:18;99345.97;;;7.17;73.13
8758;BME280;4415;42.152;24.744;2023-11-19T04:37:44;99360.75;;;7.15;73.24
8758;BME280;4415;42.152;24.744;2023-11-19T04:40:10;99347.56;;;7.08;73.57
8758;BME280;4415;42.152;24.744;2023-11-19T04:42:37;99352.41;;;7.11;74.38
8758;BME280;4415;42.152;24.744;2023-11-19T04:45:04;99359.41;;;7.12;74.96
8758;BME280;4415;42.152;24.744;2023-11-19T04:47:32;99366.38;;;7.13;75.04
8758;BME280;4415;42.152;24.744;2023-11-19T04:49:57;99363.44;;;7.05;75.58
8758;BME280;4415;42.152;24.744;2023-11-19T04:52:23;99361.03;;;7.03;76.13
8758;BME280;4415;42.152;24.744;2023-11-19T04:54:48;99363.72;;;6.88;76.41
8758;BME280;4415;42.152;24.744;2023-11-19T04:57:13;99346.53;;;6.79;76.56
8758;BME280;4415;42.152;24.744;2023-11-19T04:59:39;99365.88;;;6.96;76.59
8758;BME280;4415;42.152;24.744;2023-11-19T05:02:05;99346.81;;;6.67;76.98
8758;BME280;4415;42.152;24.744;2023-11-19T05:04:31;99371.25;;;6.81;77.68
8758;BME280;4415;42.152;24.744;2023-11-19T05:06:57;99362.09;;;6.77;76.94
8758;BME280;4415;42.152;24.744;2023-11-19T05:09:22;99332.59;;;6.57;76.70
8758;BME280;4415;42.152;24.744;2023-11-19T05:11:48;99366.66;;;6.66;77.11
8758;BME280;4415;42.152;24.744;2023-11-19T05:14:13;99358.88;;;6.55;77.12
8758;BME280;4415;42.152;24.744;2023-11-19T05:16:40;99358.03;;;6.49;77.36
8758;BME280;4415;42.152;24.744;2023-11-19T05:19:06;99373.66;;;6.62;76.72
8758;BME280;4415;42.152;24.744;2023-11-19T05:21:31;99378.47;;;6.60;76.60
8758;BME280;4415;42.152;24.744;2023-11-19T05:23:56;99379.28;;;6.61;77.03
8758;BME280;4415;42.152;24.744;2023-11-19T05:26:23;99390.00;;;6.61;76.62
8758;BME280;4415;42.152;24.744;2023-11-19T05:28:49;99379.81;;;6.68;76.85
8758;BME280;4415;42.152;24.744;2023-11-19T05:31:16;99394.84;;;6.64;76.85
8758;BME280;4415;42.152;24.744;2023-11-19T05:33:42;99386.25;;;6.62;76.41
8758;BME280;4415;42.152;24.744;2023-11-19T05:36:08;99383.28;;;6.58;75.85
8758;BME280;4415;42.152;24.744;2023-11-19T05:38:35;99378.22;;;6.57;76.29
8758;BME280;4415;42.152;24.744;2023-11-19T05:41:00;99400.50;;;6.72;76.26
8758;BME280;4415;42.152;24.744;2023-11-19T05:43:26;99391.38;;;7.29;74.52
8758;BME280;4415;42.152;24.744;2023-11-19T05:45:51;99384.09;;;7.14;72.91
8758;BME280;4415;42.152;24.744;2023-11-19T05:48:17;99411.50;;;7.06;73.70
8758;BME280;4415;42.152;24.744;2023-11-19T05:50:42;99406.38;;;7.35;73.47
8758;BME280;4415;42.152;24.744;2023-11-19T05:53:08;99405.94;;;8.02;71.25
8758;BME280;4415;42.152;24.744;2023-11-19T05:55:38;99384.28;;;8.37;68.30
8758;BME280;4415;42.152;24.744;2023-11-19T05:58:11;99376.94;;;8.82;64.95
8758;BME280;4415;42.152;24.744;2023-11-19T06:00:39;99382.91;;;8.79;66.29
8758;BME280;4415;42.152;24.744;2023-11-19T06:03:06;99386.19;;;9.62;62.59
8758;BME280;4415;42.152;24.744;2023-11-19T06:05:32;99407.53;;;10.06;61.60
8758;BME280;4415;42.152;24.744;2023-11-19T06:07:58;99410.97;;;10.35;60.16
8758;BME280;4415;42.152;24.744;2023-11-19T06:10:23;99378.78;;;10.57;57.79
8758;BME280;4415;42.152;24.744;2023-11-19T06:12:57;99410.34;;;11.13;56.86
8758;BME280;4415;42.152;24.744;2023-11-19T06:15:25;99408.72;;;11.76;55.34
8758;BME280;4415;42.152;24.744;2023-11-19T06:17:50;99401.22;;;11.41;54.73
8758;BME280;4415;42.152;24.744;2023-11-19T06:20:16;99425.53;;;12.28;52.56
8758;BME280;4415;42.152;24.744;2023-11-19T06:22:42;99419.13;;;12.37;52.13
8758;BME280;4415;42.152;24.744;2023-11-19T06:25:09;99437.72;;;12.88;49.89
8758;BME280;4415;42.152;24.744;2023-11-19T06:27:34;99422.28;;;13.55;47.97
8758;BME280;4415;42.152;24.744;2023-11-19T06:30:01;99407.34;;;14.14;46.82
8758;BME280;4415;42.152;24.744;2023-11-19T06:32:26;99418.75;;;13.55;47.15
8758;BME280;4415;42.152;24.744;2023-11-19T06:34:51;99416.94;;;14.77;44.70
8758;BME280;4415;42.152;24.744;2023-11-19T06:37:17;99405.53;;;16.19;42.06
8758;BME280;4415;42.152;24.744;2023-11-19T06:39:42;99411.97;;;15.13;41.82
8758;BME280;4415;42.152;24.744;2023-11-19T06:42:08;99415.66;;;14.09;43.87
8758;BME280;4415;42.152;24.744;2023-11-19T06:44:33;99431.84;;;14.23;44.13
8758;BME280;4415;42.152;24.744;2023-11-19T06:46:59;99430.69;;;14.15;44.57
8758;BME280;4415;42.152;24.744;2023-11-19T06:49:24;99429.19;;;14.48;43.04
8758;BME280;4415;42.152;24.744;2023-11-19T06:51:50;99442.59;;;15.73;41.30
8758;BME280;4415;42.152;24.744;2023-11-19T06:54:15;99427.31;;;15.17;41.75
8758;BME280;4415;42.152;24.744;2023-11-19T06:56:41;99404.47;;;15.73;40.23
8758;BME280;4415;42.152;24.744;2023-11-19T06:59:07;99446.16;;;16.12;40.45
8758;BME280;4415;42.152;24.744;2023-11-19T07:01:36;99430.88;;;15.82;39.75
8758;BME280;4415;42.152;24.744;2023-11-19T07:04:03;99435.56;;;15.72;40.53
8758;BME280;4415;42.152;24.744;2023-11-19T07:06:34;99439.31;;;17.06;37.69
8758;BME280;4415;42.152;24.744;2023-11-19T07:09:00;99421.69;;;17.69;36.14
8758;BME280;4415;42.152;24.744;2023-11-19T07:11:43;99436.06;;;18.87;34.85
8758;BME280;4415;42.152;24.744;2023-11-19T07:14:10;99427.53;;;18.40;34.25
8758;BME280;4415;42.152;24.744;2023-11-19T07:16:36;99415.56;;;18.68;33.99
8758;BME280;4415;42.152;24.744;2023-11-19T07:19:03;99381.59;;;19.53;33.38
8758;BME280;4415;42.152;24.744;2023-11-19T07:21:28;99389.25;;;18.15;34.30
8758;BME280;4415;42.152;24.744;2023-11-19T07:23:57;99394.97;;;17.09;35.80
8758;BME280;4415;42.152;24.744;2023-11-19T07:26:23;99389.00;;;16.94;36.28
8758;BME280;4415;42.152;24.744;2023-11-19T07:28:51;99423.19;;;17.13;35.84
8758;BME280;4415;42.152;24.744;2023-11-19T07:31:17;99441.66;;;18.78;34.31
8758;BME280;4415;42.152;24.744;2023-11-19T07:33:45;99464.69;;;18.77;32.87
8758;BME280;4415;42.152;24.744;2023-11-19T07:36:10;99478.50;;;19.60;32.02
8758;BME280;4415;42.152;24.744;2023-11-19T07:38:36;99460.75;;;19.02;31.94
8758;BME280;4415;42.152;24.744;2023-11-19T07:41:02;99480.53;;;17.99;33.66
8758;BME280;4415;42.152;24.744;2023-11-19T07:43:27;99494.34;;;18.75;32.70
8758;BME280;4415;42.152;24.744;2023-11-19T07:45:53;99474.34;;;19.39;32.00
8758;BME280;4415;42.152;24.744;2023-11-19T07:48:18;99481.91;;;18.41;32.74
8758;BME280;4415;42.152;24.744;2023-11-19T07:50:49;99481.25;;;19.08;31.84
8758;BME280;4415;42.152;24.744;2023-11-19T07:53:17;99478.03;;;17.20;34.42
8758;BME280;4415;42.152;24.744;2023-11-19T07:55:43;99466.94;;;16.25;35.52
8758;BME280;4415;42.152;24.744;2023-11-19T07:58:10;99479.97;;;18.42;33.75
8758;BME280;4415;42.152;24.744;2023-11-19T08:00:35;99474.94;;;18.80;32.31
8758;BME280;4415;42.152;24.744;2023-11-19T08:03:01;99479.19;;;15.47;36.70
8758;BME280;4415;42.152;24.744;2023-11-19T08:05:26;99477.56;;;13.90;40.52
8758;BME280;4415;42.152;24.744;2023-11-19T08:07:52;99475.50;;;14.26;40.05
8758;BME280;4415;42.152;24.744;2023-11-19T08:10:19;99477.56;;;14.21;40.94
8758;BME280;4415;42.152;24.744;2023-11-19T08:12:44;99491.56;;;14.14;41.64
8758;BME280;4415;42.152;24.744;2023-11-19T08:15:10;99477.53;;;14.60;41.36
8758;BME280;4415;42.152;24.744;2023-11-19T08:17:36;99468.50;;;14.34;40.46
8758;BME280;4415;42.152;24.744;2023-11-19T08:20:01;99491.47;;;14.28;40.95
8758;BME280;4415;42.152;24.744;2023-11-19T08:22:26;99493.72;;;14.91;39.73
8758;BME280;4415;42.152;24.744;2023-11-19T08:24:52;99497.53;;;14.55;39.82
8758;BME280;4415;42.152;24.744;2023-11-19T08:27:17;99496.78;;;15.32;39.18
8758;BME280;4415;42.152;24.744;2023-11-19T08:29:43;99501.44;;;15.40;38.93
8758;BME280;4415;42.152;24.744;2023-11-19T08:32:08;99476.03;;;14.37;40.26
8758;BME280;4415;42.152;24.744;2023-11-19T08:34:33;99513.53;;;14.26;40.75
8758;BME280;4415;42.152;24.744;2023-11-19T08:36:59;99506.00;;;14.63;39.98
8758;BME280;4415;42.152;24.744;2023-11-19T08:39:25;99519.22;;;15.46;38.49
8758;BME280;4415;42.152;24.744;2023-11-19T08:41:50;99505.53;;;14.30;41.14
8758;BME280;4415;42.152;24.744;2023-11-19T08:44:16;99519.94;;;14.30;40.84
8758;BME280;4415;42.152;24.744;2023-11-19T08:46:48;99508.47;;;14.90;40.30
8758;BME280;4415;42.152;24.744;2023-11-19T08:49:14;99517.38;;;14.73;39.53
8758;BME280;4415;42.152;24.744;2023-11-19T08:51:39;99511.25;;;14.59;39.92
8758;BME280;4415;42.152;24.744;2023-11-19T08:54:05;99522.88;;;14.34;40.59
8758;BME280;4415;42.152;24.744;2023-11-19T08:56:30;99536.94;;;15.01;39.74
8758;BME280;4415;42.152;24.744;2023-11-19T08:58:58;99525.97;;;14.49;39.94
8758;BME280;4415;42.152;24.744;2023-11-19T09:01:23;99531.69;;;15.13;39.77
8758;BME280;4415;42.152;24.744;2023-11-19T09:03:49;99547.47;;;14.77;39.13
8758;BME280;4415;42.152;24.744;2023-11-19T09:06:15;99538.19;;;14.78;39.28
8758;BME280;4415;42.152;24.744;2023-11-19T09:08:42;99548.94;;;14.91;38.08
8758;BME280;4415;42.152;24.744;2023-11-19T09:11:07;99539.66;;;15.01;38.24
8758;BME280;4415;42.152;24.744;2023-11-19T09:13:34;99541.25;;;14.06;40.07
8758;BME280;4415;42.152;24.744;2023-11-19T09:15:59;99537.13;;;14.17;40.12
8758;BME280;4415;42.152;24.744;2023-11-19T09:18:29;99512.72;;;14.26;39.45
8758;BME280;4415;42.152;24.744;2023-11-19T09:20:54;99511.06;;;14.16;39.69
8758;BME280;4415;42.152;24.744;2023-11-19T09:23:20;99492.25;;;14.68;39.93
8758;BME280;4415;42.152;24.744;2023-11-19T09:25:45;99493.13;;;15.11;39.07
8758;BME280;4415;42.152;24.744;2023-11-19T09:28:10;99513.09;;;15.15;38.25
8758;BME280;4415;42.152;24.744;2023-11-19T09:30:36;99537.56;;;14.81;38.43
8758;BME280;4415;42.152;24.744;2023-11-19T09:33:01;99514.03;;;14.28;39.73
8758;BME280;4415;42.152;24.744;2023-11-19T09:35:27;99524.72;;;14.64;38.49
8758;BME280;4415;42.152;24.744;2023-11-19T09:37:52;99523.34;;;14.92;38.77
8758;BME280;4415;42.152;24.744;2023-11-19T09:40:18;99540.50;;;14.53;38.69
8758;BME280;4415;42.152;24.744;2023-11-19T09:42:44;99525.91;;;14.41;38.82
8758;BME280;4415;42.152;24.744;2023-11-19T09:45:17;99514.19;;;14.80;38.70
8758;BME280;4415;42.152;24.744;2023-11-19T09:47:44;99524.91;;;14.76;39.15
8758;BME280;4415;42.152;24.744;2023-11-19T09:50:16;99522.91;;;14.51;38.93
8758;BME280;4415;42.152;24.744;2023-11-19T09:52:42;99525.13;;;15.83;36.97
8758;BME280;4415;42.152;24.744;2023-11-19T09:55:08;99527.97;;;15.09;38.06
8758;BME280;4415;42.152;24.744;2023-11-19T09:57:34;99549.47;;;15.36;38.25
8758;BME280;4415;42.152;24.744;2023-11-19T10:00:02;99515.84;;;14.41;38.70
8758;BME280;4415;42.152;24.744;2023-11-19T10:02:31;99539.94;;;14.74;38.76
8758;BME280;4415;42.152;24.744;2023-11-19T10:04:59;99538.38;;;15.07;38.04
8758;BME280;4415;42.152;24.744;2023-11-19T10:07:26;99541.28;;;15.02;37.53
8758;BME280;4415;42.152;24.744;2023-11-19T10:09:52;99539.34;;;13.84;40.16
8758;BME280;4415;42.152;24.744;2023-11-19T10:12:18;99532.06;;;13.93;40.04
8758;BME280;4415;42.152;24.744;2023-11-19T10:14:44;99531.03;;;14.34;39.39
8758;BME280;4415;42.152;24.744;2023-11-19T10:17:10;99522.63;;;13.91;40.73
8758;BME280;4415;42.152;24.744;2023-11-19T10:19:35;99523.75;;;14.29;39.92
8758;BME280;4415;42.152;24.744;2023-11-19T10:22:04;99529.47;;;14.58;39.09
8758;BME280;4415;42.152;24.744;2023-11-19T10:24:33;99529.44;;;14.41;39.63
8758;BME280;4415;42.152;24.744;2023-11-19T10:27:02;99512.16;;;13.54;40.73
8758;BME280;4415;42.152;24.744;2023-11-19T10:29:30;99528.81;;;13.61;41.09
8758;BME280;4415;42.152;24.744;2023-11-19T10:31:56;99515.00;;;13.26;41.40
8758;BME280;4415;42.152;24.744;2023-11-19T10:34:26;99496.34;;;13.78;41.90
8758;BME280;4415;42.152;24.744;2023-11-19T10:36:53;99501.38;;;13.40;41.86
8758;BME280;4415;42.152;24.744;2023-11-19T10:39:19;99484.41;;;13.57;42.03
8758;BME280;4415;42.152;24.744;2023-11-19T10:41:46;99481.31;;;14.11;39.83
8758;BME280;4415;42.152;24.744;2023-11-19T10:44:11;99481.03;;;14.21;40.36
8758;BME280;4415;42.152;24.744;2023-11-19T10:46:38;99477.56;;;13.90;40.68
8758;BME280;4415;42.152;24.744;2023-11-19T10:49:05;99467.88;;;13.67;40.94
8758;BME280;4415;42.152;24.744;2023-11-19T10:51:32;99477.94;;;13.22;41.97
8758;BME280;4415;42.152;24.744;2023-11-19T10:54:02;99495.72;;;12.78;42.69
8758;BME280;4415;42.152;24.744;2023-11-19T10:56:30;99491.31;;;12.69;43.37
8758;BME280;4415;42.152;24.744;2023-11-19T10:58:56;99487.69;;;12.73;43.52
8758;BME280;4415;42.152;24.744;2023-11-19T11:01:27;99487.63;;;12.38;43.90
8758;BME280;4415;42.152;24.744;2023-11-19T11:03:59;99483.88;;;12.74;43.13
8758;BME280;4415;42.152;24.744;2023-11-19T11:06:26;99464.31;;;13.00;42.24
8758;BME280;4415;42.152;24.744;2023-11-19T11:08:53;99480.78;;;13.03;42.29
8758;BME280;4415;42.152;24.744;2023-11-19T11:11:19;99494.38;;;13.25;42.22
8758;BME280;4415;42.152;24.744;2023-11-19T11:13:49;99492.31;;;13.22;41.94
8758;BME280;4415;42.152;24.744;2023-11-19T11:16:18;99492.97;;;13.28;41.90
8758;BME280;4415;42.152;24.744;2023-11-19T11:18:45;99472.81;;;13.43;42.01
8758;BME280;4415;42.152;24.744;2023-11-19T11:21:16;99478.25;;;13.43;41.55
8758;BME280;4415;42.152;24.744;2023-11-19T11:26:52;99478.44;;;13.46;41.34
8758;BME280;4415;42.152;24.744;2023-11-19T11:29:37;99470.38;;;12.83;42.58
8758;BME280;4415;42.152;24.744;2023-11-19T11:35:24;99453.97;;;12.66;43.89
8758;BME280;4415;42.152;24.744;2023-11-19T11:38:02;99443.25;;;12.61;44.08
8758;BME280;4415;42.152;24.744;2023-11-19T11:40:28;99405.06;;;12.71;43.75
8758;BME280;4415;42.152;24.744;2023-11-19T11:42:53;99403.97;;;12.72;43.08
8758;BME280;4415;42.152;24.744;2023-11-19T11:45:19;99422.34;;;12.97;43.26
8758;BME280;4415;42.152;24.744;2023-11-19T11:48:15;99409.06;;;12.38;44.22
8758;BME280;4415;42.152;24.744;2023-11-19T11:50:57;99404.78;;;12.09;44.94
8758;BME280;4415;42.152;24.744;2023-11-19T11:53:24;99410.09;;;12.28;45.22
8758;BME280;4415;42.152;24.744;2023-11-19T11:58:20;99391.97;;;12.51;44.80
8758;BME280;4415;42.152;24.744;2023-11-19T12:00:47;99401.69;;;12.65;44.67
8758;BME280;4415;42.152;24.744;2023-11-19T12:03:13;99391.38;;;12.40;45.01
8758;BME280;4415;42.152;24.744;2023-11-19T12:05:40;99395.03;;;12.36;44.25
8758;BME280;4415;42.152;24.744;2023-11-19T12:08:07;99367.59;;;12.01;44.57
8758;BME280;4415;42.152;24.744;2023-11-19T12:13:10;99405.28;;;12.11;45.29
8758;BME280;4415;42.152;24.744;2023-11-19T12:16:09;99408.31;;;11.96;45.03
8758;BME280;4415;42.152;24.744;2023-11-19T12:18:36;99409.81;;;12.02;45.14
8758;BME280;4415;42.152;24.744;2023-11-19T12:21:03;99407.97;;;11.84;45.92
8758;BME280;4415;42.152;24.744;2023-11-19T12:23:31;99398.72;;;11.58;46.72
8758;BME280;4415;42.152;24.744;2023-11-19T12:25:58;99395.81;;;11.54;47.06
8758;BME280;4415;42.152;24.744;2023-11-19T12:28:23;99404.28;;;11.80;46.80
8758;BME280;4415;42.152;24.744;2023-11-19T12:30:52;99380.84;;;11.76;46.68
8758;BME280;4415;42.152;24.744;2023-11-19T12:33:19;99374.13;;;11.73;46.59
8758;BME280;4415;42.152;24.744;2023-11-19T12:35:48;99378.47;;;11.55;47.53
8758;BME280;4415;42.152;24.744;2023-11-19T12:38:24;99368.25;;;11.39;47.92
8758;BME280;4415;42.152;24.744;2023-11-19T12:41:09;99386.66;;;11.37;48.13
8758;BME280;4415;42.152;24.744;2023-11-19T12:43:38;99375.53;;;11.25;48.34
8758;BME280;4415;42.152;24.744;2023-11-19T12:46:24;99384.94;;;11.27;49.33
8758;BME280;4415;42.152;24.744;2023-11-19T12:48:52;99379.53;;;11.27;49.38
8758;BME280;4415;42.152;24.744;2023-11-19T12:51:18;99369.69;;;11.04;49.33
8758;BME280;4415;42.152;24.744;2023-11-19T12:53:52;99371.25;;;11.05;49.63
8758;BME280;4415;42.152;24.744;2023-11-19T12:56:20;99345.38;;;10.85;49.96
8758;BME280;4415;42.152;24.744;2023-11-19T12:58:46;99380.69;;;11.08;49.96
8758;BME280;4415;42.152;24.744;2023-11-19T13:01:18;99345.38;;;10.85;50.37
8758;BME280;4415;42.152;24.744;2023-11-19T13:03:45;99358.81;;;10.90;50.07
8758;BME280;4415;42.152;24.744;2023-11-19T13:06:12;99374.63;;;10.97;50.22
8758;BME280;4415;42.152;24.744;2023-11-19T13:08:45;99378.66;;;11.00;50.35
8758;BME280;4415;42.152;24.744;2023-11-19T13:11:12;99370.44;;;10.91;50.57
8758;BME280;4415;42.152;24.744;2023-11-19T13:13:57;99364.53;;;11.03;50.68
8758;BME280;4415;42.152;24.744;2023-11-19T13:16:24;99348.00;;;10.90;50.88
8758;BME280;4415;42.152;24.744;2023-11-19T13:18:49;99350.63;;;10.95;50.70
8758;BME280;4415;42.152;24.744;2023-11-19T13:21:15;99348.06;;;11.04;50.35
8758;BME280;4415;42.152;24.744;2023-11-19T13:23:40;99345.50;;;10.94;49.71
8758;BME280;4415;42.152;24.744;2023-11-19T13:26:06;99362.38;;;10.86;50.85